Virginiborg — PBDL — position and weather

sailwx.info

Track history (hours):
 
Tides and Currents Weather Stations Pressure Air Temp Water Temp Dewpoint Dewpoint Depression Visibility Wind Speed Wind Dir Waves Ship Positions

Virginiborg

Last reported at 2017-Aug-24 09:00 UTC. Time now 2017-Aug-24 08:58 UTC.
Position N 39°06' W 010°06'.

Length 132 m; draft 8.2 m.

Type: Cargo ship. MMSI: 244632000.

Date/timePositionNaut miles runAvg speedWind from/ knotsBaromVisibWave heightAir tempDewpointWater temp
2017-Aug-24 09:00N 39°06' W 010°06'611.9
2017-Aug-24 08:30N 39°12' W 010°06'811.5
2017-Aug-24 07:47N 39°21' W 010°06'511.6
2017-Aug-24 07:22N 39°26' W 010°06'511.5
2017-Aug-24 06:58N 39°30' W 010°06'511.3
2017-Aug-24 06:30N 39°35' W 010°06'612.2
2017-Aug-24 06:00N 39°41' W 010°06'3411.6
2017-Aug-24 03:02N 40°16' W 010°06'111.5
2017-Aug-24 02:55N 40°17' W 010°06'511.1
2017-Aug-24 02:29N 40°22' W 010°06'611.4
2017-Aug-24 01:59N 40°28' W 010°06'611.5
2017-Aug-24 01:29N 40°33' W 010°06'1011.7
2017-Aug-24 00:40N 40°43' W 010°06'53611.1
2017-Aug-22 00:24N 49°01' W 005°26'511.8
2017-Aug-22 00:00N 49°04' W 005°20'712.8
2017-Aug-21 23:26N 49°08' W 005°10'512.8
2017-Aug-21 23:00N 49°10' W 005°03'713.3
2017-Aug-21 22:30N 49°14' W 004°55'713.3
2017-Aug-21 22:00N 49°17' W 004°46'713.6
2017-Aug-21 21:30N 49°21' W 004°37'713.3
2017-Aug-21 21:00N 49°24' W 004°28'612.7
2017-Aug-21 20:29N 49°28' W 004°20'612.1
2017-Aug-21 19:59N 49°31' W 004°12'611.7
2017-Aug-21 19:30N 49°34' W 004°04'611.2
2017-Aug-21 19:00N 49°37' W 003°57'510.8
2017-Aug-21 18:30N 49°39' W 003°50'510.4
2017-Aug-21 18:00N 49°42' W 003°43'5 9.7
2017-Aug-21 17:30N 49°45' W 003°36'5 9.8
2017-Aug-21 17:00N 49°47' W 003°30'510.0
2017-Aug-21 16:30N 49°50' W 003°23'510.4
2017-Aug-21 16:00N 49°53' W 003°16'611.1
2017-Aug-21 15:30N 49°55' W 003°09'611.9
2017-Aug-21 15:00N 49°58' W 003°01'612.6
2017-Aug-21 14:30N 50°00' W 002°52'713.6
2017-Aug-21 14:00N 50°02' W 002°42'714.3
2017-Aug-21 13:30N 50°04' W 002°31'814.8
2017-Aug-21 12:58N 50°07' W 002°19'2613.8
2017-Aug-21 11:02N 50°14' W 001°39'211.9
2017-Aug-21 10:54N 50°14' W 001°37'511.4
2017-Aug-21 10:30N 50°16' W 001°30'45 9.1
2017-Aug-21 05:33N 50°28' W 000°22'111.0
2017-Aug-21 05:30N 50°28' W 000°21'511.3
2017-Aug-21 05:01N 50°30' W 000°13'612.0
2017-Aug-21 04:30N 50°31' W 000°04'612.6
2017-Aug-21 04:01N 50°33' E 000°06'713.1
2017-Aug-21 03:30N 50°35' E 000°16'713.3
2017-Aug-21 03:00N 50°37' E 000°26'612.9
2017-Aug-21 02:30N 50°39' E 000°35'612.7
2017-Aug-21 02:00N 50°42' E 000°43'612.1
2017-Aug-21 01:31N 50°46' E 000°51'611.6
2017-Aug-21 01:01N 50°49' E 000°59'1210.5
2017-Aug-20 23:54N 50°56' E 001°13'4 9.5
2017-Aug-20 23:29N 50°59' E 001°18'4 8.9
2017-Aug-20 23:00N 51°02' E 001°23'4 8.8
2017-Aug-20 22:31N 51°05' E 001°28'5 9.3
2017-Aug-20 22:01N 51°07' E 001°34'510.0
2017-Aug-20 21:30N 51°11' E 001°40'510.7
2017-Aug-20 21:01N 51°15' E 001°46'612.2
2017-Aug-20 20:30N 51°20' E 001°51'713.2
2017-Aug-20 20:00N 51°26' E 001°56'713.4
2017-Aug-20 19:30N 51°31' E 002°03'713.4
2017-Aug-20 19:00N 51°36' E 002°10'713.4
2017-Aug-20 18:29N 51°41' E 002°17'9810.5
2017-Aug-20 09:14N 52°57' E 003°59'510.8
2017-Aug-20 08:48N 52°60' E 004°04'165 9.3
2017-Aug-19 15:01N 55°24' E 006°20'0 9.0
2017-Aug-19 14:58N 55°25' E 006°20'9 9.2
2017-Aug-19 14:00N 55°32' E 006°28'5 9.2
2017-Aug-19 13:30N 55°36' E 006°32'188 9.6
2017-Aug-18 17:58N 57°48' E 010°37'4 9.4
2017-Aug-18 17:30N 57°46' E 010°45'611.0
2017-Aug-18 16:58N 57°42' E 010°38'1 1.0
2017-Aug-18 15:37N 57°42' E 010°35'0 0.0
2017-Aug-18 13:18N 57°42' E 010°35'0 0.0
2017-Aug-18 12:42N 57°42' E 010°35'0 0.4
2017-Aug-18 12:30N 57°42' E 010°35'3 6.9
2017-Aug-18 12:00N 57°40' E 010°40'611.3
2017-Aug-18 11:30N 57°37' E 010°50'611.1
2017-Aug-18 10:58N 57°35' E 011°00'511.2
2017-Aug-18 10:30N 57°33' E 011°09'611.6
2017-Aug-18 10:00N 57°30' E 011°19'611.3
2017-Aug-18 09:30N 57°26' E 011°26'612.0
2017-Aug-18 09:00N 57°21' E 011°30'612.1
2017-Aug-18 08:31N 57°15' E 011°34'712.5
2017-Aug-18 07:59N 57°09' E 011°38'712.1
2017-Aug-18 07:23N 57°02' E 011°43'511.7
2017-Aug-18 07:00N 56°58' E 011°46'6110.7
2017-Aug-18 01:15N 56°01' E 011°05'312.7
2017-Aug-18 01:00N 55°58' E 011°02'713.0
2017-Aug-18 00:30N 55°53' E 010°54'612.8
2017-Aug-17 23:59N 55°47' E 010°49'713.1
2017-Aug-17 23:29N 55°41' E 010°48'612.8
2017-Aug-17 23:00N 55°35' E 010°50'612.3
2017-Aug-17 22:30N 55°29' E 010°55'612.1
2017-Aug-17 21:59N 55°24' E 011°01'1412.1
2017-Aug-17 20:51N 55°10' E 011°04'613.1
2017-Aug-17 20:25N 55°05' E 011°03'612.0
2017-Aug-17 19:53N 54°58' E 011°00'512.3
2017-Aug-17 19:27N 54°54' E 010°54'612.4
2017-Aug-17 18:56N 54°48' E 010°53'711.5
2017-Aug-17 18:21N 54°41' E 010°56'411.9
2017-Aug-17 18:00N 54°39' E 011°02'1211.9
2017-Aug-17 17:02N 54°34' E 011°20'012.1
2017-Aug-17 17:00N 54°34' E 011°20'611.9
2017-Aug-17 16:30N 54°31' E 011°30'612.1
2017-Aug-17 16:00N 54°29' E 011°39'1411.4
2017-Aug-17 14:47N 54°27' E 012°03'311.7
2017-Aug-17 14:30N 54°27' E 012°08'510.8
2017-Aug-17 14:00N 54°32' E 012°13'1211.1
2017-Aug-17 12:56N 54°41' E 012°26'511.9
2017-Aug-17 12:30N 54°44' E 012°33'611.5
2017-Aug-17 12:00N 54°47' E 012°42'611.4
2017-Aug-17 11:30N 54°49' E 012°51'811.6
2017-Aug-17 10:49N 54°52' E 013°04'411.5
2017-Aug-17 10:30N 54°53' E 013°10'711.6
2017-Aug-17 09:56N 54°55' E 013°21'511.8
2017-Aug-17 09:29N 54°57' E 013°29'611.4
2017-Aug-17 09:00N 54°59' E 013°38'611.4
2017-Aug-17 08:30N 55°01' E 013°48'611.5
2017-Aug-17 08:00N 55°03' E 013°57'510.9
2017-Aug-17 07:30N 55°06' E 014°05'611.1
2017-Aug-17 07:00N 55°10' E 014°12'611.3
2017-Aug-17 06:30N 55°14' E 014°18'612.0
2017-Aug-17 06:00N 55°19' E 014°24'611.7
2017-Aug-17 05:30N 55°23' E 014°31'611.6
2017-Aug-17 05:00N 55°27' E 014°38'611.6
2017-Aug-17 04:30N 55°31' E 014°47'611.7
2017-Aug-17 04:00N 55°34' E 014°56'611.7
2017-Aug-17 03:30N 55°37' E 015°04'611.5
2017-Aug-17 03:00N 55°40' E 015°13'611.5
2017-Aug-17 02:30N 55°42' E 015°22'611.4
2017-Aug-17 02:00N 55°45' E 015°31'611.5
2017-Aug-17 01:30N 55°48' E 015°40'611.4
2017-Aug-17 01:00N 55°51' E 015°49'611.4
2017-Aug-17 00:30N 55°54' E 015°58'611.4
2017-Aug-17 00:00N 55°56' E 016°06'611.2
2017-Aug-16 23:30N 55°59' E 016°15'510.9
2017-Aug-16 23:00N 56°02' E 016°24'611.1
2017-Aug-16 22:30N 56°05' E 016°32'611.2
2017-Aug-16 22:00N 56°08' E 016°40'510.7
2017-Aug-16 21:30N 56°12' E 016°46'611.2
2017-Aug-16 21:00N 56°18' E 016°50'611.3
2017-Aug-16 20:30N 56°23' E 016°54'611.5
2017-Aug-16 20:00N 56°28' E 016°57'16311.3
2017-Aug-16 05:37N 58°53' E 019°14'216.3
2017-Aug-16 05:28N 58°55' E 019°17'4 9.5
2017-Aug-16 05:00N 58°59' E 019°21'510.9
2017-Aug-16 04:31N 59°04' E 019°26'611.2
2017-Aug-16 04:00N 59°09' E 019°32'611.2
2017-Aug-16 03:31N 59°13' E 019°37'611.4
2017-Aug-16 03:00N 59°18' E 019°43'611.6
2017-Aug-16 02:30N 59°23' E 019°49'510.8
2017-Aug-16 02:00N 59°28' E 019°54'511.0
2017-Aug-16 01:30N 59°33' E 019°58'4 8.9
2017-Aug-16 01:00N 59°38' E 019°56'612.1
2017-Aug-16 00:30N 59°42' E 019°48'510.3
2017-Aug-16 00:00N 59°46' E 019°42'611.1
2017-Aug-15 23:31N 59°50' E 019°35'611.1
2017-Aug-15 23:01N 59°55' E 019°28'611.1
2017-Aug-15 22:30N 59°59' E 019°21'713.4
2017-Aug-15 22:00N 60°04' E 019°12'611.6
2017-Aug-15 21:30N 60°09' E 019°05'4 8.6
2017-Aug-15 21:00N 60°12' E 019°01'611.5
2017-Aug-15 20:30N 60°18' E 019°00'611.0
2017-Aug-15 20:00N 60°24' E 018°60'611.2
2017-Aug-15 19:30N 60°29' E 018°59'510.8
2017-Aug-15 19:00N 60°35' E 019°01'510.7
2017-Aug-15 18:30N 60°40' E 019°04'510.9
2017-Aug-15 18:00N 60°45' E 019°06'510.8
2017-Aug-15 17:30N 60°50' E 019°08'510.8
2017-Aug-15 17:00N 60°56' E 019°11'510.7
2017-Aug-15 16:30N 61°01' E 019°13'610.9
2017-Aug-15 15:59N 61°06' E 019°16'511.0
2017-Aug-15 15:30N 61°11' E 019°18'611.1
2017-Aug-15 15:00N 61°17' E 019°21'711.3
2017-Aug-15 14:23N 61°24' E 019°24'411.2
2017-Aug-15 14:00N 61°28' E 019°26'611.2
2017-Aug-15 13:30N 61°33' E 019°28'611.2
2017-Aug-15 13:00N 61°39' E 019°31'511.0
2017-Aug-15 12:30N 61°44' E 019°33'611.0
2017-Aug-15 12:00N 61°50' E 019°36'511.0
2017-Aug-15 11:31N 61°55' E 019°39'611.2
2017-Aug-15 11:00N 62°00' E 019°41'611.2
2017-Aug-15 10:30N 62°06' E 019°44'611.4
2017-Aug-15 10:00N 62°11' E 019°46'611.3
2017-Aug-15 09:30N 62°17' E 019°49'611.2
2017-Aug-15 09:00N 62°22' E 019°52'611.0
2017-Aug-15 08:30N 62°28' E 019°54'511.0
2017-Aug-15 08:00N 62°33' E 019°57'511.0
2017-Aug-15 07:30N 62°39' E 019°60'611.1
2017-Aug-15 07:00N 62°44' E 020°02'611.2
2017-Aug-15 06:30N 62°49' E 020°05'612.0
2017-Aug-15 06:00N 62°55' E 020°08'611.5
2017-Aug-15 05:30N 63°01' E 020°11'611.5
2017-Aug-15 05:00N 63°06' E 020°13'611.5
2017-Aug-15 04:30N 63°12' E 020°16'611.5
2017-Aug-15 04:00N 63°18' E 020°19'510.8
2017-Aug-15 03:30N 63°22' E 020°26'611.0
2017-Aug-15 03:00N 63°26' E 020°35'611.3
2017-Aug-15 02:30N 63°31' E 020°41'510.9
2017-Aug-15 02:00N 63°33' E 020°52'612.3
2017-Aug-15 01:31N 63°35' E 021°05'510.7
2017-Aug-15 01:01N 63°37' E 021°16'612.1
2017-Aug-15 00:30N 63°38' E 021°30'510.2
2017-Aug-15 00:00N 63°39' E 021°41'611.1
2017-Aug-14 23:30N 63°41' E 021°53'611.2
2017-Aug-14 23:00N 63°42' E 022°05'510.9
2017-Aug-14 22:30N 63°43' E 022°17'510.5
2017-Aug-14 22:00N 63°45' E 022°29'510.5
2017-Aug-14 21:30N 63°43' E 022°40'1 1.6
2017-Aug-14 20:58N 63°43' E 022°41'0 0.0
2017-Aug-14 20:29N 63°43' E 022°41'0 0.0
2017-Aug-14 19:56N 63°43' E 022°41'0 0.0
2017-Aug-14 19:29N 63°43' E 022°41'0 0.0
2017-Aug-14 19:00N 63°43' E 022°41'0 0.0
2017-Aug-14 18:30N 63°43' E 022°41'0 0.0
2017-Aug-14 18:00N 63°43' E 022°41'0 0.0
2017-Aug-14 17:30N 63°43' E 022°41'0 0.0
2017-Aug-14 16:59N 63°43' E 022°41'0 0.0
2017-Aug-14 16:29N 63°43' E 022°41'0 0.0
2017-Aug-14 15:59N 63°43' E 022°41'0 0.0
2017-Aug-14 15:29N 63°43' E 022°41'0 0.0
2017-Aug-14 14:59N 63°43' E 022°41'0 0.0
2017-Aug-14 14:28N 63°43' E 022°41'0 0.0
2017-Aug-14 13:58N 63°43' E 022°41'0 0.0
2017-Aug-14 13:28N 63°43' E 022°41'0 0.0
2017-Aug-14 12:58N 63°43' E 022°41'0 0.0
2017-Aug-14 12:24N 63°43' E 022°41'0 0.0
2017-Aug-14 12:00N 63°43' E 022°41'0 0.0
2017-Aug-14 11:30N 63°43' E 022°41'0 0.0
2017-Aug-14 11:00N 63°43' E 022°41'0 0.0
2017-Aug-14 10:30N 63°43' E 022°41'0 0.0
2017-Aug-14 09:59N 63°43' E 022°41'0 0.0
2017-Aug-14 09:29N 63°43' E 022°41'0 0.0
2017-Aug-14 08:59N 63°43' E 022°41'  
Track history (hours):
 
Tides and Currents Weather Stations Pressure Air Temp Water Temp Dewpoint Dewpoint Depression Visibility Wind Speed Wind Dir Waves Ship Positions

Virginiborg

Last reported at 2017-Aug-24 09:00 UTC. Time now 2017-Aug-24 08:58 UTC.
Position N 39°06' W 010°06'.

Length 132 m; draft 8.2 m.

Type: Cargo ship. MMSI: 244632000.

Date/timePositionNaut miles runAvg speedWind from/ knotsBaromVisibWave heightAir tempDewpointWater temp
2017-Aug-24 09:00N 39°06' W 010°06'611.9
2017-Aug-24 08:30N 39°12' W 010°06'811.5
2017-Aug-24 07:47N 39°21' W 010°06'511.6
2017-Aug-24 07:22N 39°26' W 010°06'511.5
2017-Aug-24 06:58N 39°30' W 010°06'511.3
2017-Aug-24 06:30N 39°35' W 010°06'612.2
2017-Aug-24 06:00N 39°41' W 010°06'3411.6
2017-Aug-24 03:02N 40°16' W 010°06'111.5
2017-Aug-24 02:55N 40°17' W 010°06'511.1
2017-Aug-24 02:29N 40°22' W 010°06'611.4
2017-Aug-24 01:59N 40°28' W 010°06'611.5
2017-Aug-24 01:29N 40°33' W 010°06'1011.7
2017-Aug-24 00:40N 40°43' W 010°06'53611.1
2017-Aug-22 00:24N 49°01' W 005°26'511.8
2017-Aug-22 00:00N 49°04' W 005°20'712.8
2017-Aug-21 23:26N 49°08' W 005°10'512.8
2017-Aug-21 23:00N 49°10' W 005°03'713.3
2017-Aug-21 22:30N 49°14' W 004°55'713.3
2017-Aug-21 22:00N 49°17' W 004°46'713.6
2017-Aug-21 21:30N 49°21' W 004°37'713.3
2017-Aug-21 21:00N 49°24' W 004°28'612.7
2017-Aug-21 20:29N 49°28' W 004°20'612.1
2017-Aug-21 19:59N 49°31' W 004°12'611.7
2017-Aug-21 19:30N 49°34' W 004°04'611.2
2017-Aug-21 19:00N 49°37' W 003°57'510.8
2017-Aug-21 18:30N 49°39' W 003°50'510.4
2017-Aug-21 18:00N 49°42' W 003°43'5 9.7
2017-Aug-21 17:30N 49°45' W 003°36'5 9.8
2017-Aug-21 17:00N 49°47' W 003°30'510.0
2017-Aug-21 16:30N 49°50' W 003°23'510.4
2017-Aug-21 16:00N 49°53' W 003°16'611.1
2017-Aug-21 15:30N 49°55' W 003°09'611.9
2017-Aug-21 15:00N 49°58' W 003°01'612.6
2017-Aug-21 14:30N 50°00' W 002°52'713.6
2017-Aug-21 14:00N 50°02' W 002°42'714.3
2017-Aug-21 13:30N 50°04' W 002°31'814.8
2017-Aug-21 12:58N 50°07' W 002°19'2613.8
2017-Aug-21 11:02N 50°14' W 001°39'211.9
2017-Aug-21 10:54N 50°14' W 001°37'511.4
2017-Aug-21 10:30N 50°16' W 001°30'45 9.1
2017-Aug-21 05:33N 50°28' W 000°22'111.0
2017-Aug-21 05:30N 50°28' W 000°21'511.3
2017-Aug-21 05:01N 50°30' W 000°13'612.0
2017-Aug-21 04:30N 50°31' W 000°04'612.6
2017-Aug-21 04:01N 50°33' E 000°06'713.1
2017-Aug-21 03:30N 50°35' E 000°16'713.3
2017-Aug-21 03:00N 50°37' E 000°26'612.9
2017-Aug-21 02:30N 50°39' E 000°35'612.7
2017-Aug-21 02:00N 50°42' E 000°43'612.1
2017-Aug-21 01:31N 50°46' E 000°51'611.6
2017-Aug-21 01:01N 50°49' E 000°59'1210.5
2017-Aug-20 23:54N 50°56' E 001°13'4 9.5
2017-Aug-20 23:29N 50°59' E 001°18'4 8.9
2017-Aug-20 23:00N 51°02' E 001°23'4 8.8
2017-Aug-20 22:31N 51°05' E 001°28'5 9.3
2017-Aug-20 22:01N 51°07' E 001°34'510.0
2017-Aug-20 21:30N 51°11' E 001°40'510.7
2017-Aug-20 21:01N 51°15' E 001°46'612.2
2017-Aug-20 20:30N 51°20' E 001°51'713.2
2017-Aug-20 20:00N 51°26' E 001°56'713.4
2017-Aug-20 19:30N 51°31' E 002°03'713.4
2017-Aug-20 19:00N 51°36' E 002°10'713.4
2017-Aug-20 18:29N 51°41' E 002°17'9810.5
2017-Aug-20 09:14N 52°57' E 003°59'510.8
2017-Aug-20 08:48N 52°60' E 004°04'165 9.3
2017-Aug-19 15:01N 55°24' E 006°20'0 9.0
2017-Aug-19 14:58N 55°25' E 006°20'9 9.2
2017-Aug-19 14:00N 55°32' E 006°28'5 9.2
2017-Aug-19 13:30N 55°36' E 006°32'188 9.6
2017-Aug-18 17:58N 57°48' E 010°37'4 9.4
2017-Aug-18 17:30N 57°46' E 010°45'611.0
2017-Aug-18 16:58N 57°42' E 010°38'1 1.0
2017-Aug-18 15:37N 57°42' E 010°35'0 0.0
2017-Aug-18 13:18N 57°42' E 010°35'0 0.0
2017-Aug-18 12:42N 57°42' E 010°35'0 0.4
2017-Aug-18 12:30N 57°42' E 010°35'3 6.9
2017-Aug-18 12:00N 57°40' E 010°40'611.3
2017-Aug-18 11:30N 57°37' E 010°50'611.1
2017-Aug-18 10:58N 57°35' E 011°00'511.2
2017-Aug-18 10:30N 57°33' E 011°09'611.6
2017-Aug-18 10:00N 57°30' E 011°19'611.3
2017-Aug-18 09:30N 57°26' E 011°26'612.0
2017-Aug-18 09:00N 57°21' E 011°30'612.1
2017-Aug-18 08:31N 57°15' E 011°34'712.5
2017-Aug-18 07:59N 57°09' E 011°38'712.1
2017-Aug-18 07:23N 57°02' E 011°43'511.7
2017-Aug-18 07:00N 56°58' E 011°46'6110.7
2017-Aug-18 01:15N 56°01' E 011°05'312.7
2017-Aug-18 01:00N 55°58' E 011°02'713.0
2017-Aug-18 00:30N 55°53' E 010°54'612.8
2017-Aug-17 23:59N 55°47' E 010°49'713.1
2017-Aug-17 23:29N 55°41' E 010°48'612.8
2017-Aug-17 23:00N 55°35' E 010°50'612.3
2017-Aug-17 22:30N 55°29' E 010°55'612.1
2017-Aug-17 21:59N 55°24' E 011°01'1412.1
2017-Aug-17 20:51N 55°10' E 011°04'613.1
2017-Aug-17 20:25N 55°05' E 011°03'612.0
2017-Aug-17 19:53N 54°58' E 011°00'512.3
2017-Aug-17 19:27N 54°54' E 010°54'612.4
2017-Aug-17 18:56N 54°48' E 010°53'711.5
2017-Aug-17 18:21N 54°41' E 010°56'411.9
2017-Aug-17 18:00N 54°39' E 011°02'1211.9
2017-Aug-17 17:02N 54°34' E 011°20'012.1
2017-Aug-17 17:00N 54°34' E 011°20'611.9
2017-Aug-17 16:30N 54°31' E 011°30'612.1
2017-Aug-17 16:00N 54°29' E 011°39'1411.4
2017-Aug-17 14:47N 54°27' E 012°03'311.7
2017-Aug-17 14:30N 54°27' E 012°08'510.8
2017-Aug-17 14:00N 54°32' E 012°13'1211.1
2017-Aug-17 12:56N 54°41' E 012°26'511.9
2017-Aug-17 12:30N 54°44' E 012°33'611.5
2017-Aug-17 12:00N 54°47' E 012°42'611.4
2017-Aug-17 11:30N 54°49' E 012°51'811.6
2017-Aug-17 10:49N 54°52' E 013°04'411.5
2017-Aug-17 10:30N 54°53' E 013°10'711.6
2017-Aug-17 09:56N 54°55' E 013°21'511.8
2017-Aug-17 09:29N 54°57' E 013°29'611.4
2017-Aug-17 09:00N 54°59' E 013°38'611.4
2017-Aug-17 08:30N 55°01' E 013°48'611.5
2017-Aug-17 08:00N 55°03' E 013°57'510.9
2017-Aug-17 07:30N 55°06' E 014°05'611.1
2017-Aug-17 07:00N 55°10' E 014°12'611.3
2017-Aug-17 06:30N 55°14' E 014°18'612.0
2017-Aug-17 06:00N 55°19' E 014°24'611.7
2017-Aug-17 05:30N 55°23' E 014°31'611.6
2017-Aug-17 05:00N 55°27' E 014°38'611.6
2017-Aug-17 04:30N 55°31' E 014°47'611.7
2017-Aug-17 04:00N 55°34' E 014°56'611.7
2017-Aug-17 03:30N 55°37' E 015°04'611.5
2017-Aug-17 03:00N 55°40' E 015°13'611.5
2017-Aug-17 02:30N 55°42' E 015°22'611.4
2017-Aug-17 02:00N 55°45' E 015°31'611.5
2017-Aug-17 01:30N 55°48' E 015°40'611.4
2017-Aug-17 01:00N 55°51' E 015°49'611.4
2017-Aug-17 00:30N 55°54' E 015°58'611.4
2017-Aug-17 00:00N 55°56' E 016°06'611.2
2017-Aug-16 23:30N 55°59' E 016°15'510.9
2017-Aug-16 23:00N 56°02' E 016°24'611.1
2017-Aug-16 22:30N 56°05' E 016°32'611.2
2017-Aug-16 22:00N 56°08' E 016°40'510.7
2017-Aug-16 21:30N 56°12' E 016°46'611.2
2017-Aug-16 21:00N 56°18' E 016°50'611.3
2017-Aug-16 20:30N 56°23' E 016°54'611.5
2017-Aug-16 20:00N 56°28' E 016°57'16311.3
2017-Aug-16 05:37N 58°53' E 019°14'216.3
2017-Aug-16 05:28N 58°55' E 019°17'4 9.5
2017-Aug-16 05:00N 58°59' E 019°21'510.9
2017-Aug-16 04:31N 59°04' E 019°26'611.2
2017-Aug-16 04:00N 59°09' E 019°32'611.2
2017-Aug-16 03:31N 59°13' E 019°37'611.4
2017-Aug-16 03:00N 59°18' E 019°43'611.6
2017-Aug-16 02:30N 59°23' E 019°49'510.8
2017-Aug-16 02:00N 59°28' E 019°54'511.0
2017-Aug-16 01:30N 59°33' E 019°58'4 8.9
2017-Aug-16 01:00N 59°38' E 019°56'612.1
2017-Aug-16 00:30N 59°42' E 019°48'510.3
2017-Aug-16 00:00N 59°46' E 019°42'611.1
2017-Aug-15 23:31N 59°50' E 019°35'611.1
2017-Aug-15 23:01N 59°55' E 019°28'611.1
2017-Aug-15 22:30N 59°59' E 019°21'713.4
2017-Aug-15 22:00N 60°04' E 019°12'611.6
2017-Aug-15 21:30N 60°09' E 019°05'4 8.6
2017-Aug-15 21:00N 60°12' E 019°01'611.5
2017-Aug-15 20:30N 60°18' E 019°00'611.0
2017-Aug-15 20:00N 60°24' E 018°60'611.2
2017-Aug-15 19:30N 60°29' E 018°59'510.8
2017-Aug-15 19:00N 60°35' E 019°01'510.7
2017-Aug-15 18:30N 60°40' E 019°04'510.9
2017-Aug-15 18:00N 60°45' E 019°06'510.8
2017-Aug-15 17:30N 60°50' E 019°08'510.8
2017-Aug-15 17:00N 60°56' E 019°11'510.7
2017-Aug-15 16:30N 61°01' E 019°13'610.9
2017-Aug-15 15:59N 61°06' E 019°16'511.0
2017-Aug-15 15:30N 61°11' E 019°18'611.1
2017-Aug-15 15:00N 61°17' E 019°21'711.3
2017-Aug-15 14:23N 61°24' E 019°24'411.2
2017-Aug-15 14:00N 61°28' E 019°26'611.2
2017-Aug-15 13:30N 61°33' E 019°28'611.2
2017-Aug-15 13:00N 61°39' E 019°31'511.0
2017-Aug-15 12:30N 61°44' E 019°33'611.0
2017-Aug-15 12:00N 61°50' E 019°36'511.0
2017-Aug-15 11:31N 61°55' E 019°39'611.2
2017-Aug-15 11:00N 62°00' E 019°41'611.2
2017-Aug-15 10:30N 62°06' E 019°44'611.4
2017-Aug-15 10:00N 62°11' E 019°46'611.3
2017-Aug-15 09:30N 62°17' E 019°49'611.2
2017-Aug-15 09:00N 62°22' E 019°52'611.0
2017-Aug-15 08:30N 62°28' E 019°54'511.0
2017-Aug-15 08:00N 62°33' E 019°57'511.0
2017-Aug-15 07:30N 62°39' E 019°60'611.1
2017-Aug-15 07:00N 62°44' E 020°02'611.2
2017-Aug-15 06:30N 62°49' E 020°05'612.0
2017-Aug-15 06:00N 62°55' E 020°08'611.5
2017-Aug-15 05:30N 63°01' E 020°11'611.5
2017-Aug-15 05:00N 63°06' E 020°13'611.5
2017-Aug-15 04:30N 63°12' E 020°16'611.5
2017-Aug-15 04:00N 63°18' E 020°19'510.8
2017-Aug-15 03:30N 63°22' E 020°26'611.0
2017-Aug-15 03:00N 63°26' E 020°35'611.3
2017-Aug-15 02:30N 63°31' E 020°41'510.9
2017-Aug-15 02:00N 63°33' E 020°52'612.3
2017-Aug-15 01:31N 63°35' E 021°05'510.7
2017-Aug-15 01:01N 63°37' E 021°16'612.1
2017-Aug-15 00:30N 63°38' E 021°30'510.2
2017-Aug-15 00:00N 63°39' E 021°41'611.1
2017-Aug-14 23:30N 63°41' E 021°53'611.2
2017-Aug-14 23:00N 63°42' E 022°05'510.9
2017-Aug-14 22:30N 63°43' E 022°17'510.5
2017-Aug-14 22:00N 63°45' E 022°29'510.5
2017-Aug-14 21:30N 63°43' E 022°40'1 1.6
2017-Aug-14 20:58N 63°43' E 022°41'0 0.0
2017-Aug-14 20:29N 63°43' E 022°41'0 0.0
2017-Aug-14 19:56N 63°43' E 022°41'0 0.0
2017-Aug-14 19:29N 63°43' E 022°41'0 0.0
2017-Aug-14 19:00N 63°43' E 022°41'0 0.0
2017-Aug-14 18:30N 63°43' E 022°41'0 0.0
2017-Aug-14 18:00N 63°43' E 022°41'0 0.0
2017-Aug-14 17:30N 63°43' E 022°41'0 0.0
2017-Aug-14 16:59N 63°43' E 022°41'0 0.0
2017-Aug-14 16:29N 63°43' E 022°41'0 0.0
2017-Aug-14 15:59N 63°43' E 022°41'0 0.0
2017-Aug-14 15:29N 63°43' E 022°41'0 0.0
2017-Aug-14 14:59N 63°43' E 022°41'0 0.0
2017-Aug-14 14:28N 63°43' E 022°41'0 0.0
2017-Aug-14 13:58N 63°43' E 022°41'0 0.0
2017-Aug-14 13:28N 63°43' E 022°41'0 0.0
2017-Aug-14 12:58N 63°43' E 022°41'0 0.0
2017-Aug-14 12:24N 63°43' E 022°41'0 0.0
2017-Aug-14 12:00N 63°43' E 022°41'0 0.0
2017-Aug-14 11:30N 63°43' E 022°41'0 0.0
2017-Aug-14 11:00N 63°43' E 022°41'0 0.0
2017-Aug-14 10:30N 63°43' E 022°41'0 0.0
2017-Aug-14 09:59N 63°43' E 022°41'0 0.0
2017-Aug-14 09:29N 63°43' E 022°41'0 0.0
2017-Aug-14 08:59N 63°43' E 022°41'  

Dump ship's entire track history